sensor_id;sensor_type;location;lat;lon;timestamp;pressure;altitude;pressure_sealevel;temperature
65272;BMP280;51868;48.812;8.198;2022-11-15T00:01:08;100078.22;;;8.92
65272;BMP280;51868;48.812;8.198;2022-11-15T00:03:39;100082.28;;;8.91
65272;BMP280;51868;48.812;8.198;2022-11-15T00:06:06;100080.06;;;8.87
65272;BMP280;51868;48.812;8.198;2022-11-15T00:08:34;100077.91;;;8.86
65272;BMP280;51868;48.812;8.198;2022-11-15T00:11:03;100087.41;;;8.83
65272;BMP280;51868;48.812;8.198;2022-11-15T00:13:31;100079.00;;;8.81
65272;BMP280;51868;48.812;8.198;2022-11-15T00:16:00;100081.78;;;8.81
65272;BMP280;51868;48.812;8.198;2022-11-15T00:18:30;100078.91;;;8.78
65272;BMP280;51868;48.812;8.198;2022-11-15T00:21:13;100086.50;;;8.78
65272;BMP280;51868;48.812;8.198;2022-11-15T00:24:28;100075.44;;;8.78
65272;BMP280;51868;48.812;8.198;2022-11-15T00:27:13;100076.16;;;8.78
65272;BMP280;51868;48.812;8.198;2022-11-15T00:29:41;100078.28;;;8.80
65272;BMP280;51868;48.812;8.198;2022-11-15T00:32:09;100062.41;;;8.81
65272;BMP280;51868;48.812;8.198;2022-11-15T00:34:38;100066.59;;;8.82
65272;BMP280;51868;48.812;8.198;2022-11-15T00:37:06;100066.13;;;8.85
65272;BMP280;51868;48.812;8.198;2022-11-15T00:39:34;100058.53;;;8.86
65272;BMP280;51868;48.812;8.198;2022-11-15T00:42:02;100057.09;;;8.85
65272;BMP280;51868;48.812;8.198;2022-11-15T00:44:29;100045.19;;;8.82
65272;BMP280;51868;48.812;8.198;2022-11-15T00:46:57;100047.97;;;8.82
65272;BMP280;51868;48.812;8.198;2022-11-15T00:49:25;100047.22;;;8.82
65272;BMP280;51868;48.812;8.198;2022-11-15T00:51:54;100046.50;;;8.81
65272;BMP280;51868;48.812;8.198;2022-11-15T00:54:22;100044.47;;;8.82
65272;BMP280;51868;48.812;8.198;2022-11-15T00:56:51;100043.84;;;8.83
65272;BMP280;51868;48.812;8.198;2022-11-15T00:59:19;100040.38;;;8.83
65272;BMP280;51868;48.812;8.198;2022-11-15T01:01:47;100039.03;;;8.84
65272;BMP280;51868;48.812;8.198;2022-11-15T01:04:14;100034.25;;;8.84
65272;BMP280;51868;48.812;8.198;2022-11-15T01:06:42;100035.56;;;8.83
65272;BMP280;51868;48.812;8.198;2022-11-15T01:09:11;100028.72;;;8.84
65272;BMP280;51868;48.812;8.198;2022-11-15T01:11:39;100027.97;;;8.84
65272;BMP280;51868;48.812;8.198;2022-11-15T01:14:07;100033.63;;;8.86
65272;BMP280;51868;48.812;8.198;2022-11-15T01:16:35;100032.31;;;8.87
65272;BMP280;51868;48.812;8.198;2022-11-15T01:19:03;100031.06;;;8.90
65272;BMP280;51868;48.812;8.198;2022-11-15T01:21:31;100024.28;;;8.93
65272;BMP280;51868;48.812;8.198;2022-11-15T01:23:58;100029.94;;;8.95
65272;BMP280;51868;48.812;8.198;2022-11-15T01:26:28;100027.28;;;8.97
65272;BMP280;51868;48.812;8.198;2022-11-15T01:28:55;100021.84;;;8.99
65272;BMP280;51868;48.812;8.198;2022-11-15T01:31:23;100026.75;;;9.00
65272;BMP280;51868;48.812;8.198;2022-11-15T01:33:51;100016.41;;;9.01
65272;BMP280;51868;48.812;8.198;2022-11-15T01:36:20;100017.13;;;9.01
65272;BMP280;51868;48.812;8.198;2022-11-15T01:38:53;100020.59;;;9.02
65272;BMP280;51868;48.812;8.198;2022-11-15T01:41:23;100013.88;;;9.05
65272;BMP280;51868;48.812;8.198;2022-11-15T01:43:54;100018.16;;;9.08
65272;BMP280;51868;48.812;8.198;2022-11-15T01:46:26;100010.59;;;9.09
65272;BMP280;51868;48.812;8.198;2022-11-15T01:48:57;100012.00;;;9.10
65272;BMP280;51868;48.812;8.198;2022-11-15T01:51:28;100003.00;;;9.09
65272;BMP280;51868;48.812;8.198;2022-11-15T01:54:02;100003.00;;;9.09
65272;BMP280;51868;48.812;8.198;2022-11-15T01:56:36;100004.41;;;9.10
65272;BMP280;51868;48.812;8.198;2022-11-15T01:59:08;99987.81;;;9.10
65272;BMP280;51868;48.812;8.198;2022-11-15T02:01:36;99985.75;;;9.11
65272;BMP280;51868;48.812;8.198;2022-11-15T02:04:09;99978.16;;;9.11
65272;BMP280;51868;48.812;8.198;2022-11-15T02:06:38;99989.22;;;9.11
65272;BMP280;51868;48.812;8.198;2022-11-15T02:09:06;99989.97;;;9.12
65272;BMP280;51868;48.812;8.198;2022-11-15T02:11:36;99976.84;;;9.12
65272;BMP280;51868;48.812;8.198;2022-11-15T02:14:06;99958.88;;;9.13
65272;BMP280;51868;48.812;8.198;2022-11-15T02:16:41;99956.13;;;9.13
65272;BMP280;51868;48.812;8.198;2022-11-15T02:19:22;99941.69;;;9.15
65272;BMP280;51868;48.812;8.198;2022-11-15T02:22:05;99945.06;;;9.13
65272;BMP280;51868;48.812;8.198;2022-11-15T02:25:03;99938.19;;;9.14
65272;BMP280;51868;48.812;8.198;2022-11-15T02:30:52;99942.28;;;9.13
65272;BMP280;51868;48.812;8.198;2022-11-15T02:33:30;99940.16;;;9.12
65272;BMP280;51868;48.812;8.198;2022-11-15T02:36:01;99940.84;;;9.12
65272;BMP280;51868;48.812;8.198;2022-11-15T02:38:34;99938.09;;;9.12
65272;BMP280;51868;48.812;8.198;2022-11-15T02:41:11;99942.28;;;9.13
65272;BMP280;51868;48.812;8.198;2022-11-15T02:43:51;99940.97;;;9.14
65272;BMP280;51868;48.812;8.198;2022-11-15T02:46:31;99927.84;;;9.15
65272;BMP280;51868;48.812;8.198;2022-11-15T02:49:17;99930.00;;;9.16
65272;BMP280;51868;48.812;8.198;2022-11-15T02:51:47;99938.31;;;9.16
65272;BMP280;51868;48.812;8.198;2022-11-15T02:54:20;99937.69;;;9.18
65272;BMP280;51868;48.812;8.198;2022-11-15T02:56:49;99934.28;;;9.19
65272;BMP280;51868;48.812;8.198;2022-11-15T02:59:27;99930.28;;;9.22
65272;BMP280;51868;48.812;8.198;2022-11-15T03:02:10;99931.81;;;9.26
65272;BMP280;51868;48.812;8.198;2022-11-15T03:04:44;99924.94;;;9.27
65272;BMP280;51868;48.812;8.198;2022-11-15T03:07:22;99925.75;;;9.29
65272;BMP280;51868;48.812;8.198;2022-11-15T03:09:56;99919.47;;;9.29
65272;BMP280;51868;48.812;8.198;2022-11-15T03:12:34;99909.84;;;9.30
65272;BMP280;51868;48.812;8.198;2022-11-15T03:15:09;99916.81;;;9.31
65272;BMP280;51868;48.812;8.198;2022-11-15T03:17:43;99918.13;;;9.30
65272;BMP280;51868;48.812;8.198;2022-11-15T03:20:17;99911.19;;;9.29
65272;BMP280;51868;48.812;8.198;2022-11-15T03:22:47;99912.59;;;9.30
65272;BMP280;51868;48.812;8.198;2022-11-15T03:25:17;99915.28;;;9.28
65272;BMP280;51868;48.812;8.198;2022-11-15T03:27:53;99918.06;;;9.28
65272;BMP280;51868;48.812;8.198;2022-11-15T03:30:24;99918.06;;;9.28
65272;BMP280;51868;48.812;8.198;2022-11-15T03:32:56;99913.94;;;9.29
65272;BMP280;51868;48.812;8.198;2022-11-15T03:35:25;99926.44;;;9.30
65272;BMP280;51868;48.812;8.198;2022-11-15T03:37:57;99914.06;;;9.31
65272;BMP280;51868;48.812;8.198;2022-11-15T03:40:30;99917.63;;;9.33
65272;BMP280;51868;48.812;8.198;2022-11-15T03:43:04;99917.75;;;9.35
65272;BMP280;51868;48.812;8.198;2022-11-15T03:45:39;99915.78;;;9.38
65272;BMP280;51868;48.812;8.198;2022-11-15T03:48:12;99913.09;;;9.40
65272;BMP280;51868;48.812;8.198;2022-11-15T03:50:42;99922.13;;;9.40
65272;BMP280;51868;48.812;8.198;2022-11-15T03:53:12;99923.47;;;9.39
65272;BMP280;51868;48.812;8.198;2022-11-15T03:55:40;99918.63;;;9.40
65272;BMP280;51868;48.812;8.198;2022-11-15T03:58:08;99915.78;;;9.38
65272;BMP280;51868;48.812;8.198;2022-11-15T04:00:36;99915.78;;;9.38
65272;BMP280;51868;48.812;8.198;2022-11-15T04:03:04;99918.63;;;9.40
65272;BMP280;51868;48.812;8.198;2022-11-15T04:05:35;99913.09;;;9.40
65272;BMP280;51868;48.812;8.198;2022-11-15T04:08:03;99921.41;;;9.40
65272;BMP280;51868;48.812;8.198;2022-11-15T04:10:30;99918.63;;;9.40
65272;BMP280;51868;48.812;8.198;2022-11-15T04:12:58;99924.19;;;9.40
65272;BMP280;51868;48.812;8.198;2022-11-15T04:15:26;99920.06;;;9.41
65272;BMP280;51868;48.812;8.198;2022-11-15T04:17:56;99920.19;;;9.43
65272;BMP280;51868;48.812;8.198;2022-11-15T04:20:26;99916.06;;;9.44
65272;BMP280;51868;48.812;8.198;2022-11-15T04:23:15;99907.13;;;9.45
65272;BMP280;51868;48.812;8.198;2022-11-15T04:26:02;99902.22;;;9.44
65272;BMP280;51868;48.812;8.198;2022-11-15T04:28:31;99898.03;;;9.43
65272;BMP280;51868;48.812;8.198;2022-11-15T04:31:01;99899.38;;;9.42
65272;BMP280;51868;48.812;8.198;2022-11-15T04:33:29;99888.28;;;9.42
65272;BMP280;51868;48.812;8.198;2022-11-15T04:35:57;99889.59;;;9.41
65272;BMP280;51868;48.812;8.198;2022-11-15T04:38:43;99902.03;;;9.40
65272;BMP280;51868;48.812;8.198;2022-11-15T04:41:11;99900.56;;;9.39
65272;BMP280;51868;48.812;8.198;2022-11-15T04:43:39;99893.00;;;9.39
65272;BMP280;51868;48.812;8.198;2022-11-15T04:46:06;99890.94;;;9.40
65272;BMP280;51868;48.812;8.198;2022-11-15T04:48:34;99886.84;;;9.41
65272;BMP280;51868;48.812;8.198;2022-11-15T04:51:02;99888.28;;;9.42
65272;BMP280;51868;48.812;8.198;2022-11-15T04:53:30;99886.94;;;9.43
65272;BMP280;51868;48.812;8.198;2022-11-15T04:55:59;99884.97;;;9.45
65272;BMP280;51868;48.812;8.198;2022-11-15T04:58:27;99888.53;;;9.48
65272;BMP280;51868;48.812;8.198;2022-11-15T05:00:55;99887.13;;;9.47
65272;BMP280;51868;48.812;8.198;2022-11-15T05:03:22;99890.59;;;9.47
65272;BMP280;51868;48.812;8.198;2022-11-15T05:06:07;99889.22;;;9.46
65272;BMP280;51868;48.812;8.198;2022-11-15T05:08:35;99897.50;;;9.46
65272;BMP280;51868;48.812;8.198;2022-11-15T05:11:04;99891.31;;;9.48
65272;BMP280;51868;48.812;8.198;2022-11-15T05:13:32;99878.19;;;9.48
65272;BMP280;51868;48.812;8.198;2022-11-15T05:16:00;99880.22;;;9.48
65272;BMP280;51868;48.812;8.198;2022-11-15T05:18:28;99890.00;;;9.49
65272;BMP280;51868;48.812;8.198;2022-11-15T05:20:55;99879.53;;;9.47
65272;BMP280;51868;48.812;8.198;2022-11-15T05:23:23;99878.81;;;9.47
65272;BMP280;51868;48.812;8.198;2022-11-15T05:25:51;99878.81;;;9.47
65272;BMP280;51868;48.812;8.198;2022-11-15T05:28:20;99882.94;;;9.46
65272;BMP280;51868;48.812;8.198;2022-11-15T05:30:47;99880.06;;;9.44
65272;BMP280;51868;48.812;8.198;2022-11-15T05:33:15;99875.16;;;9.42
65272;BMP280;51868;48.812;8.198;2022-11-15T05:35:47;99875.66;;;9.39
65272;BMP280;51868;48.812;8.198;2022-11-15T05:38:16;99881.03;;;9.35
65272;BMP280;51868;48.812;8.198;2022-11-15T05:40:44;99874.47;;;9.28
65272;BMP280;51868;48.812;8.198;2022-11-15T05:43:14;99880.53;;;9.24
65272;BMP280;51868;48.812;8.198;2022-11-15T05:45:43;99888.03;;;9.22
65272;BMP280;51868;48.812;8.198;2022-11-15T05:48:12;99874.72;;;9.18
65272;BMP280;51868;48.812;8.198;2022-11-15T05:50:42;99880.16;;;9.16
65272;BMP280;51868;48.812;8.198;2022-11-15T05:53:13;99882.84;;;9.14
65272;BMP280;51868;48.812;8.198;2022-11-15T05:55:42;99875.84;;;9.13
65272;BMP280;51868;48.812;8.198;2022-11-15T05:58:09;99875.84;;;9.13
65272;BMP280;51868;48.812;8.198;2022-11-15T06:00:37;99877.28;;;9.14
65272;BMP280;51868;48.812;8.198;2022-11-15T06:03:10;99879.44;;;9.16
65272;BMP280;51868;48.812;8.198;2022-11-15T06:05:40;99873.28;;;9.17
65272;BMP280;51868;48.812;8.198;2022-11-15T06:08:09;99870.00;;;9.21
65272;BMP280;51868;48.812;8.198;2022-11-15T06:10:37;99866.59;;;9.22
65272;BMP280;51868;48.812;8.198;2022-11-15T06:13:05;99866.69;;;9.24
65272;BMP280;51868;48.812;8.198;2022-11-15T06:15:33;99868.84;;;9.26
65272;BMP280;51868;48.812;8.198;2022-11-15T06:18:01;99858.38;;;9.24
65272;BMP280;51868;48.812;8.198;2022-11-15T06:20:30;99866.69;;;9.24
65272;BMP280;51868;48.812;8.198;2022-11-15T06:22:58;99860.44;;;9.24
65272;BMP280;51868;48.812;8.198;2022-11-15T06:25:26;99858.38;;;9.24
65272;BMP280;51868;48.812;8.198;2022-11-15T06:27:55;99858.38;;;9.24
65272;BMP280;51868;48.812;8.198;2022-11-15T06:30:24;99858.38;;;9.24
65272;BMP280;51868;48.812;8.198;2022-11-15T06:32:58;99861.25;;;9.27
65272;BMP280;51868;48.812;8.198;2022-11-15T06:35:26;99855.81;;;9.29
65272;BMP280;51868;48.812;8.198;2022-11-15T06:38:01;99854.47;;;9.30
65272;BMP280;51868;48.812;8.198;2022-11-15T06:40:29;99851.69;;;9.30
65272;BMP280;51868;48.812;8.198;2022-11-15T06:43:00;99850.38;;;9.31
65272;BMP280;51868;48.812;8.198;2022-11-15T06:45:28;99858.69;;;9.31
65272;BMP280;51868;48.812;8.198;2022-11-15T06:47:58;99851.78;;;9.32
65272;BMP280;51868;48.812;8.198;2022-11-15T06:50:26;99857.44;;;9.34
65272;BMP280;51868;48.812;8.198;2022-11-15T06:53:01;99847.72;;;9.33
65272;BMP280;51868;48.812;8.198;2022-11-15T06:55:29;99856.13;;;9.35
65272;BMP280;51868;48.812;8.198;2022-11-15T06:57:57;99854.06;;;9.35
65272;BMP280;51868;48.812;8.198;2022-11-15T07:00:25;99856.19;;;9.37
65272;BMP280;51868;48.812;8.198;2022-11-15T07:02:53;99857.63;;;9.38
65272;BMP280;51868;48.812;8.198;2022-11-15T07:05:29;99859.03;;;9.39
65272;BMP280;51868;48.812;8.198;2022-11-15T07:07:58;99858.44;;;9.40
65272;BMP280;51868;48.812;8.198;2022-11-15T07:10:27;99857.09;;;9.41
65272;BMP280;51868;48.812;8.198;2022-11-15T07:12:56;99860.59;;;9.42
65272;BMP280;51868;48.812;8.198;2022-11-15T07:15:25;99867.56;;;9.43
65272;BMP280;51868;48.812;8.198;2022-11-15T07:17:53;99863.44;;;9.44
65272;BMP280;51868;48.812;8.198;2022-11-15T07:20:20;99858.00;;;9.46
65272;BMP280;51868;48.812;8.198;2022-11-15T07:22:48;99864.97;;;9.47
65272;BMP280;51868;48.812;8.198;2022-11-15T07:25:16;99864.31;;;9.48
65272;BMP280;51868;48.812;8.198;2022-11-15T07:27:54;99858.06;;;9.48
65272;BMP280;51868;48.812;8.198;2022-11-15T07:30:22;99850.47;;;9.48
65272;BMP280;51868;48.812;8.198;2022-11-15T07:32:52;99848.44;;;9.49
65272;BMP280;51868;48.812;8.198;2022-11-15T07:35:20;99851.94;;;9.50
65272;BMP280;51868;48.812;8.198;2022-11-15T07:37:55;99856.13;;;9.51
65272;BMP280;51868;48.812;8.198;2022-11-15T07:40:24;99854.81;;;9.52
65272;BMP280;51868;48.812;8.198;2022-11-15T07:42:58;99851.41;;;9.53
65272;BMP280;51868;48.812;8.198;2022-11-15T07:45:26;99850.78;;;9.55
65272;BMP280;51868;48.812;8.198;2022-11-15T07:47:54;99848.09;;;9.57
65272;BMP280;51868;48.812;8.198;2022-11-15T07:50:23;99843.38;;;9.59
65272;BMP280;51868;48.812;8.198;2022-11-15T07:52:54;99840.19;;;9.65
65272;BMP280;51868;48.812;8.198;2022-11-15T07:55:23;99839.63;;;9.68
65272;BMP280;51868;48.812;8.198;2022-11-15T07:57:50;99848.13;;;9.73
65272;BMP280;51868;48.812;8.198;2022-11-15T08:00:20;99848.31;;;9.77
65272;BMP280;51868;48.812;8.198;2022-11-15T08:03:03;99854.75;;;9.81
65272;BMP280;51868;48.812;8.198;2022-11-15T08:05:32;99854.28;;;9.87
65272;BMP280;51868;48.812;8.198;2022-11-15T08:08:00;99849.56;;;9.89
65272;BMP280;51868;48.812;8.198;2022-11-15T08:10:29;99860.91;;;9.96
65272;BMP280;51868;48.812;8.198;2022-11-15T08:13:03;99859.66;;;9.99
65272;BMP280;51868;48.812;8.198;2022-11-15T08:15:33;99852.13;;;10.01
65272;BMP280;51868;48.812;8.198;2022-11-15T08:18:03;99853.69;;;10.04
65272;BMP280;51868;48.812;8.198;2022-11-15T08:20:31;99851.72;;;10.07
65272;BMP280;51868;48.812;8.198;2022-11-15T08:23:02;99846.28;;;10.09
65272;BMP280;51868;48.812;8.198;2022-11-15T08:25:31;99846.41;;;10.13
65272;BMP280;51868;48.812;8.198;2022-11-15T08:28:01;99840.97;;;10.15
65272;BMP280;51868;48.812;8.198;2022-11-15T08:30:29;99840.34;;;10.16
65272;BMP280;51868;48.812;8.198;2022-11-15T08:32:58;99842.56;;;10.20
65272;BMP280;51868;48.812;8.198;2022-11-15T08:35:26;99836.50;;;10.24
65272;BMP280;51868;48.812;8.198;2022-11-15T08:37:55;99834.53;;;10.26
65272;BMP280;51868;48.812;8.198;2022-11-15T08:40:22;99831.91;;;10.30
65272;BMP280;51868;48.812;8.198;2022-11-15T08:42:53;99832.72;;;10.33
65272;BMP280;51868;48.812;8.198;2022-11-15T08:45:21;99823.84;;;10.36
65272;BMP280;51868;48.812;8.198;2022-11-15T08:47:49;99829.50;;;10.38
65272;BMP280;51868;48.812;8.198;2022-11-15T08:50:21;99829.66;;;10.43
65272;BMP280;51868;48.812;8.198;2022-11-15T08:52:49;99833.22;;;10.45
65272;BMP280;51868;48.812;8.198;2022-11-15T08:55:17;99822.28;;;10.49
65272;BMP280;51868;48.812;8.198;2022-11-15T08:57:49;99825.88;;;10.52
65272;BMP280;51868;48.812;8.198;2022-11-15T09:00:18;99823.16;;;10.54
65272;BMP280;51868;48.812;8.198;2022-11-15T09:02:46;99822.53;;;10.55
65272;BMP280;51868;48.812;8.198;2022-11-15T09:05:14;99824.06;;;10.58
65272;BMP280;51868;48.812;8.198;2022-11-15T09:07:44;99828.31;;;10.61
65272;BMP280;51868;48.812;8.198;2022-11-15T09:10:12;99827.09;;;10.64
65272;BMP280;51868;48.812;8.198;2022-11-15T09:12:40;99825.81;;;10.68
65272;BMP280;51868;48.812;8.198;2022-11-15T09:15:08;99823.22;;;10.72
65272;BMP280;51868;48.812;8.198;2022-11-15T09:17:38;99819.25;;;10.77
65272;BMP280;51868;48.812;8.198;2022-11-15T09:20:07;99815.19;;;10.80
65272;BMP280;51868;48.812;8.198;2022-11-15T09:22:35;99818.16;;;10.84
65272;BMP280;51868;48.812;8.198;2022-11-15T09:25:07;99819.66;;;10.87
65272;BMP280;51868;48.812;8.198;2022-11-15T09:27:36;99809.34;;;10.90
65272;BMP280;51868;48.812;8.198;2022-11-15T09:30:05;99809.47;;;10.94
65272;BMP280;51868;48.812;8.198;2022-11-15T09:32:33;99817.28;;;10.97
65272;BMP280;51868;48.812;8.198;2022-11-15T09:35:05;99807.59;;;10.98
65272;BMP280;51868;48.812;8.198;2022-11-15T09:37:33;99813.97;;;11.01
65272;BMP280;51868;48.812;8.198;2022-11-15T09:40:00;99814.66;;;11.01
65272;BMP280;51868;48.812;8.198;2022-11-15T09:42:40;99816.06;;;11.02
65272;BMP280;51868;48.812;8.198;2022-11-15T09:45:18;99821.00;;;11.04
65272;BMP280;51868;48.812;8.198;2022-11-15T09:48:06;99811.31;;;11.05
65272;BMP280;51868;48.812;8.198;2022-11-15T09:50:41;99817.59;;;11.05
65272;BMP280;51868;48.812;8.198;2022-11-15T09:53:12;99819.03;;;11.06
65272;BMP280;51868;48.812;8.198;2022-11-15T09:55:47;99817.59;;;11.05
65272;BMP280;51868;48.812;8.198;2022-11-15T09:58:24;99817.66;;;11.07
65272;BMP280;51868;48.812;8.198;2022-11-15T10:00:55;99824.66;;;11.08
65272;BMP280;51868;48.812;8.198;2022-11-15T10:03:27;99821.88;;;11.08
65272;BMP280;51868;48.812;8.198;2022-11-15T10:06:00;99821.88;;;11.08
65272;BMP280;51868;48.812;8.198;2022-11-15T10:08:37;99817.03;;;11.09
65272;BMP280;51868;48.812;8.198;2022-11-15T10:11:09;99826.84;;;11.12
65272;BMP280;51868;48.812;8.198;2022-11-15T10:14:01;99819.25;;;11.13
65272;BMP280;51868;48.812;8.198;2022-11-15T10:16:51;99815.84;;;11.14
65272;BMP280;51868;48.812;8.198;2022-11-15T10:19:26;99812.44;;;11.16
65272;BMP280;51868;48.812;8.198;2022-11-15T10:22:06;99813.16;;;11.16
65272;BMP280;51868;48.812;8.198;2022-11-15T10:24:41;99815.28;;;11.18
65272;BMP280;51868;48.812;8.198;2022-11-15T10:27:11;99802.09;;;11.18
65272;BMP280;51868;48.812;8.198;2022-11-15T10:29:44;99813.31;;;11.20
65272;BMP280;51868;48.812;8.198;2022-11-15T10:32:13;99805.06;;;11.22
65272;BMP280;51868;48.812;8.198;2022-11-15T10:34:41;99794.72;;;11.25
65272;BMP280;51868;48.812;8.198;2022-11-15T10:37:09;99793.34;;;11.26
65272;BMP280;51868;48.812;8.198;2022-11-15T10:39:37;99796.31;;;11.30
65272;BMP280;51868;48.812;8.198;2022-11-15T10:42:16;99790.97;;;11.36
65272;BMP280;51868;48.812;8.198;2022-11-15T10:44:45;99770.31;;;11.41
65272;BMP280;51868;48.812;8.198;2022-11-15T10:47:25;99765.06;;;11.49
65272;BMP280;51868;48.812;8.198;2022-11-15T10:49:58;99751.44;;;11.57
65272;BMP280;51868;48.812;8.198;2022-11-15T10:52:27;99749.16;;;11.72
65272;BMP280;51868;48.812;8.198;2022-11-15T10:54:58;99742.03;;;11.87
65272;BMP280;51868;48.812;8.198;2022-11-15T10:57:30;99734.13;;;11.99
65272;BMP280;51868;48.812;8.198;2022-11-15T11:00:02;99731.72;;;12.11
65272;BMP280;51868;48.812;8.198;2022-11-15T11:02:32;99717.38;;;12.19
65272;BMP280;51868;48.812;8.198;2022-11-15T11:05:03;99707.94;;;12.28
65272;BMP280;51868;48.812;8.198;2022-11-15T11:07:35;99704.06;;;12.37
65272;BMP280;51868;48.812;8.198;2022-11-15T11:10:05;99695.94;;;12.45
65272;BMP280;51868;48.812;8.198;2022-11-15T11:13:14;99691.41;;;12.56
65272;BMP280;51868;48.812;8.198;2022-11-15T11:15:46;99679.81;;;12.64
65272;BMP280;51868;48.812;8.198;2022-11-15T11:18:23;99685.59;;;12.72
65272;BMP280;51868;48.812;8.198;2022-11-15T11:20:58;99674.63;;;12.78
65272;BMP280;51868;48.812;8.198;2022-11-15T11:23:39;99670.66;;;12.83
65272;BMP280;51868;48.812;8.198;2022-11-15T11:26:18;99668.75;;;12.90
65272;BMP280;51868;48.812;8.198;2022-11-15T11:29:00;99672.34;;;12.94
65272;BMP280;51868;48.812;8.198;2022-11-15T11:31:42;99664.06;;;12.98
65272;BMP280;51868;48.812;8.198;2022-11-15T11:34:19;99657.31;;;13.06
65272;BMP280;51868;48.812;8.198;2022-11-15T11:36:57;99663.00;;;13.10
65272;BMP280;51868;48.812;8.198;2022-11-15T11:39:34;99658.97;;;13.15
65272;BMP280;51868;48.812;8.198;2022-11-15T11:42:10;99659.69;;;13.15
65272;BMP280;51868;48.812;8.198;2022-11-15T11:44:46;99650.56;;;13.13
65272;BMP280;51868;48.812;8.198;2022-11-15T11:47:21;99660.22;;;13.10
65272;BMP280;51868;48.812;8.198;2022-11-15T11:49:51;99653.19;;;13.07
65272;BMP280;51868;48.812;8.198;2022-11-15T11:52:24;99651.00;;;13.03
65272;BMP280;51868;48.812;8.198;2022-11-15T11:55:02;99657.28;;;13.04
65272;BMP280;51868;48.812;8.198;2022-11-15T11:57:39;99648.94;;;13.04
65272;BMP280;51868;48.812;8.198;2022-11-15T12:00:17;99651.03;;;13.05
65272;BMP280;51868;48.812;8.198;2022-11-15T12:02:53;99642.00;;;13.05
65272;BMP280;51868;48.812;8.198;2022-11-15T12:05:30;99637.81;;;13.06
65272;BMP280;51868;48.812;8.198;2022-11-15T12:08:04;99630.91;;;13.07
65272;BMP280;51868;48.812;8.198;2022-11-15T12:10:37;99628.09;;;13.07
65272;BMP280;51868;48.812;8.198;2022-11-15T12:13:08;99618.31;;;13.06
65272;BMP280;51868;48.812;8.198;2022-11-15T12:15:42;99619.03;;;13.06
65272;BMP280;51868;48.812;8.198;2022-11-15T12:18:12;99611.47;;;13.09
65272;BMP280;51868;48.812;8.198;2022-11-15T12:20:49;99608.78;;;13.13
65272;BMP280;51868;48.812;8.198;2022-11-15T12:23:22;99597.78;;;13.19
65272;BMP280;51868;48.812;8.198;2022-11-15T12:25:53;99600.19;;;13.31
65272;BMP280;51868;48.812;8.198;2022-11-15T12:28:29;99597.22;;;13.51
65272;BMP280;51868;48.812;8.198;2022-11-15T12:31:04;99585.72;;;13.66
65272;BMP280;51868;48.812;8.198;2022-11-15T12:33:37;99588.06;;;13.76
65272;BMP280;51868;48.812;8.198;2022-11-15T12:36:09;99579.41;;;13.94
65272;BMP280;51868;48.812;8.198;2022-11-15T12:38:53;99570.94;;;14.22
65272;BMP280;51868;48.812;8.198;2022-11-15T12:41:23;99551.97;;;15.29
65272;BMP280;51868;48.812;8.198;2022-11-15T12:43:51;99542.81;;;16.95
65272;BMP280;51868;48.812;8.198;2022-11-15T12:46:22;99534.75;;;17.35
65272;BMP280;51868;48.812;8.198;2022-11-15T12:48:54;99554.16;;;18.37
65272;BMP280;51868;48.812;8.198;2022-11-15T12:54:54;99543.81;;;21.36
65272;BMP280;51868;48.812;8.198;2022-11-15T12:57:39;99532.03;;;21.81
65272;BMP280;51868;48.812;8.198;2022-11-15T13:00:37;99536.00;;;20.65
65272;BMP280;51868;48.812;8.198;2022-11-15T13:03:25;99540.84;;;19.29
65272;BMP280;51868;48.812;8.198;2022-11-15T13:06:04;99540.81;;;18.31
65272;BMP280;51868;48.812;8.198;2022-11-15T13:08:43;99542.59;;;17.55
65272;BMP280;51868;48.812;8.198;2022-11-15T13:11:48;99531.53;;;16.86
65272;BMP280;51868;48.812;8.198;2022-11-15T13:14:47;99526.81;;;16.32
65272;BMP280;51868;48.812;8.198;2022-11-15T13:17:37;99515.78;;;15.90
65272;BMP280;51868;48.812;8.198;2022-11-15T13:20:23;99517.47;;;15.59
65272;BMP280;51868;48.812;8.198;2022-11-15T13:23:01;99512.22;;;15.33
65272;BMP280;51868;48.812;8.198;2022-11-15T13:28:39;99497.78;;;15.04
65272;BMP280;51868;48.812;8.198;2022-11-15T13:31:24;99492.97;;;15.09
65272;BMP280;51868;48.812;8.198;2022-11-15T13:33:59;99490.19;;;15.11
65272;BMP280;51868;48.812;8.198;2022-11-15T13:36:29;99489.31;;;15.00
65272;BMP280;51868;48.812;8.198;2022-11-15T13:39:01;99476.50;;;14.85
65272;BMP280;51868;48.812;8.198;2022-11-15T13:41:30;99475.59;;;14.72
65272;BMP280;51868;48.812;8.198;2022-11-15T13:44:00;99460.75;;;14.61
65272;BMP280;51868;48.812;8.198;2022-11-15T13:46:29;99459.16;;;14.52
65272;BMP280;51868;48.812;8.198;2022-11-15T13:48:59;99462.50;;;14.42
65272;BMP280;51868;48.812;8.198;2022-11-15T13:51:33;99462.31;;;14.32
65272;BMP280;51868;48.812;8.198;2022-11-15T13:54:12;99451.69;;;14.25
65272;BMP280;51868;48.812;8.198;2022-11-15T13:56:44;99448.78;;;14.18
65272;BMP280;51868;48.812;8.198;2022-11-15T13:59:16;99448.72;;;14.14
65272;BMP280;51868;48.812;8.198;2022-11-15T14:01:45;99447.97;;;14.12
65272;BMP280;51868;48.812;8.198;2022-11-15T14:04:17;99442.31;;;14.08
65272;BMP280;51868;48.812;8.198;2022-11-15T14:06:48;99435.22;;;14.03
65272;BMP280;51868;48.812;8.198;2022-11-15T14:09:39;99433.72;;;13.97
65272;BMP280;51868;48.812;8.198;2022-11-15T14:12:26;99430.19;;;13.95
65272;BMP280;51868;48.812;8.198;2022-11-15T14:14:55;99425.91;;;13.90
65272;BMP280;51868;48.812;8.198;2022-11-15T14:17:35;99431.34;;;13.84
65272;BMP280;51868;48.812;8.198;2022-11-15T14:20:29;99424.94;;;13.77
65272;BMP280;51868;48.812;8.198;2022-11-15T14:23:00;99421.34;;;13.72
65272;BMP280;51868;48.812;8.198;2022-11-15T14:25:30;99415.06;;;13.70
65272;BMP280;51868;48.812;8.198;2022-11-15T14:28:09;99412.19;;;13.66
65272;BMP280;51868;48.812;8.198;2022-11-15T14:30:38;99405.84;;;13.63
65272;BMP280;51868;48.812;8.198;2022-11-15T14:33:19;99396.06;;;13.62
65272;BMP280;51868;48.812;8.198;2022-11-15T14:35:47;99406.47;;;13.60
65272;BMP280;51868;48.812;8.198;2022-11-15T14:38:15;99391.13;;;13.59
65272;BMP280;51868;48.812;8.198;2022-11-15T14:40:44;99389.00;;;13.57
65272;BMP280;51868;48.812;8.198;2022-11-15T14:43:12;99382.63;;;13.53
65272;BMP280;51868;48.812;8.198;2022-11-15T14:45:40;99383.97;;;13.50
65272;BMP280;51868;48.812;8.198;2022-11-15T14:48:08;99376.91;;;13.46
65272;BMP280;51868;48.812;8.198;2022-11-15T14:50:36;99381.00;;;13.41
65272;BMP280;51868;48.812;8.198;2022-11-15T14:53:05;99373.97;;;13.38